Flight Track Log - Related Links

Times and Time Zones

All times are in EDT time to prevent confusion due to time zone crossing. See the UAL1259 flight status page for this flight to view local times or setup timezone preferences in your user account.

Time Position Orientation Groundspeed Altitude Reporting Facility
EDT Latitude Longitude Course Direction KTS MPH feet Rate Location/Type
Mon 10:17:32 PM 33.9340 -118.4430 264° West 190 219 1,700  Level FlightAware ADS-B
Mon 10:18:02 PM 33.9310 -118.4780 264° West 226 260 2,600 2,100 Climbing FlightAware ADS-B
Mon 10:18:32 PM 33.9290 -118.5160 266° West 253 291 3,800 2,945 Climbing FlightAware ADS-B
Mon 10:18:57 PM 33.9260 -118.5610 265° West 272 313 5,300 3,927 Climbing FlightAware ADS-B
Mon 10:19:27 PM 33.9210 -118.6030 262° West 257 296 7,400 4,036 Climbing FlightAware ADS-B
Mon 10:19:52 PM 33.9160 -118.6350 259° West 250 288 9,000 3,257 Climbing FlightAware ADS-B
Mon 10:20:37 PM 33.9050 -118.7100 260° West 281 323 11,200 1,976 Climbing FlightAware ADS-B
Mon 10:21:17 PM 33.8960 -118.7770 261° West 331 381 11,800 1,725 Climbing FlightAware ADS-B
Mon 10:21:57 PM 33.8870 -118.8530 262° West 345 397 13,500 2,571 Climbing FlightAware ADS-B
Mon 10:22:27 PM 33.9020 -118.9120 287° West 356 410 14,800 2,240 Climbing FlightAware ADS-B
Mon 10:23:12 PM 33.9530 -118.9750 314° West 376 433 16,300 2,280 Climbing FlightAware ADS-B
Mon 10:24:07 PM 34.0180 -119.0650 311° West 381 438 18,600 2,337 Climbing FlightAware ADS-B
Mon 10:24:47 PM 34.0620 -119.1270 311° West 382 440 20,000 1,976 Climbing FlightAware ADS-B
Mon 10:25:32 PM 34.1150 -119.2030 310° West 397 457 21,400 1,835 Climbing FlightAware ADS-B
Mon 10:26:12 PM 34.1620 -119.2710 310° West 402 463 22,600 1,875 Climbing FlightAware ADS-B
Mon 10:26:52 PM 34.2100 -119.3390 310° West 406 467 23,900 1,694 Climbing FlightAware ADS-B
Mon 10:27:37 PM 34.2650 -119.4180 310° West 409 471 25,000 1,412 Climbing FlightAware ADS-B
Mon 10:28:17 PM 34.3150 -119.4900 310° West 423 487 25,900 1,350 Climbing FlightAware ADS-B
Mon 10:28:57 PM 34.3660 -119.5640 310° West 428 493 26,800 1,482 Climbing FlightAware ADS-B
Mon 10:29:42 PM 34.4220 -119.6440 310° West 426 490 28,000 1,694 Climbing FlightAware ADS-B
Mon 10:30:22 PM 34.4720 -119.7170 310° West 415 478 29,200 1,725 Climbing FlightAware ADS-B
Mon 10:31:02 PM 34.5270 -119.7900 312° West 422 486 30,300 1,482 Climbing FlightAware ADS-B
Mon 10:31:47 PM 34.5920 -119.8610 318° Northwest 416 479 31,300 1,341 Climbing FlightAware ADS-B
Mon 10:32:27 PM 34.6510 -119.9240 319° Northwest 415 478 32,200 1,412 Climbing FlightAware ADS-B
Mon 10:33:12 PM 34.7150 -119.9950 318° Northwest 417 480 33,300 1,341 Climbing FlightAware ADS-B
Mon 10:33:52 PM 34.7700 -120.0560 318° Northwest 413 475 34,100 1,129 Climbing FlightAware ADS-B
Mon 10:34:37 PM 34.8360 -120.1280 318° Northwest 413 475 34,900 1,059 Climbing FlightAware ADS-B
Mon 10:35:17 PM 34.8920 -120.1890 318° Northwest 413 475 35,600 825 Climbing FlightAware ADS-B
Mon 10:35:57 PM 34.9500 -120.2540 317° Northwest 412 474 36,000 300 Climbing FlightAware ADS-B
Mon 10:36:37 PM 35.0060 -120.3150 318° Northwest 413 475 36,000  Level FlightAware ADS-B
Mon 10:37:52 PM 35.1120 -120.4330 318° Northwest 415 478 36,000  Level FlightAware ADS-B
Mon 10:38:32 PM 35.1700 -120.4970 318° Northwest 413 475 36,000  Level FlightAware ADS-B
Mon 10:39:12 PM 35.2280 -120.5620 318° Northwest 408 470 36,000  Level FlightAware ADS-B
Mon 10:39:57 PM 35.2880 -120.6290 318° Northwest 406 467 36,000  Level FlightAware ADS-B
Mon 10:40:47 PM 35.3600 -120.6980 322° Northwest 411 473 36,000  Level FlightAware ADS-B
Mon 10:41:32 PM 35.4340 -120.7620 325° Northwest 410 472 36,000  Level FlightAware ADS-B
Mon 10:42:17 PM 35.5030 -120.8240 324° Northwest 409 471 36,000  Level FlightAware ADS-B
Mon 10:42:57 PM 35.5620 -120.8770 324° Northwest 406 467 36,000  Level FlightAware ADS-B
Mon 10:43:42 PM 35.6310 -120.9390 324° Northwest 405 466 36,000  Level FlightAware ADS-B
Mon 10:44:22 PM 35.6920 -120.9950 323° Northwest 402 463 36,000  Level FlightAware ADS-B
Mon 10:45:02 PM 35.7510 -121.0490 323° Northwest 402 463 36,000  Level FlightAware ADS-B
Mon 10:45:47 PM 35.8170 -121.1080 324° Northwest 401 461 36,000  Level FlightAware ADS-B
Mon 10:46:27 PM 35.8760 -121.1620 323° Northwest 399 459 36,000  Level FlightAware ADS-B
Mon 10:47:07 PM 35.9380 -121.2180 324° Northwest 398 458 36,000  Level FlightAware ADS-B
Mon 10:47:52 PM 36.0010 -121.2750 324° Northwest 398 458 36,000 -494 Level FlightAware ADS-B
Mon 10:48:32 PM 36.0650 -121.3340 323° Northwest 398 458 35,300 -1,129 Descending FlightAware ADS-B
Mon 10:49:17 PM 36.1300 -121.3940 323° Northwest 400 460 34,400 -1,553 Descending FlightAware ADS-B
Mon 10:49:57 PM 36.1880 -121.4470 324° Northwest 400 460 33,100 -1,976 Descending FlightAware ADS-B
Mon 10:50:42 PM 36.2530 -121.5070 323° Northwest 397 457 31,600 -2,118 Descending FlightAware ADS-B
Mon 10:51:22 PM 36.3160 -121.5650 323° Northwest 398 458 30,100 -2,175 Descending FlightAware ADS-B
Mon 10:52:02 PM 36.3740 -121.6180 324° Northwest 394 453 28,700 -2,188 Descending FlightAware ADS-B
Mon 10:52:47 PM 36.4380 -121.6780 323° Northwest 379 436 27,000 -2,259 Descending FlightAware ADS-B
Mon 10:53:27 PM 36.4930 -121.7290 323° Northwest 365 420 25,500 -2,175 Descending FlightAware ADS-B
Mon 10:54:07 PM 36.5450 -121.7770 323° Northwest 353 406 24,100 -2,188 Descending FlightAware ADS-B
Mon 10:54:52 PM 36.6040 -121.8320 323° Northwest 337 388 22,400 -2,188 Descending FlightAware ADS-B
Mon 10:55:32 PM 36.6530 -121.8780 323° Northwest 329 379 21,000 -2,118 Descending FlightAware ADS-B
Mon 10:56:17 PM 36.7070 -121.9280 323° Northwest 323 372 19,400 -2,047 Descending FlightAware ADS-B
Mon 10:56:57 PM 36.7540 -121.9650 328° Northwest 318 366 18,100 -2,188 Descending FlightAware ADS-B
Mon 10:57:42 PM 36.8250 -121.9860 347° North 320 368 16,300 -2,188 Descending FlightAware ADS-B
Mon 10:58:22 PM 36.8820 -122.0000 349° North 304 350 15,000 -1,950 Descending FlightAware ADS-B
Mon 10:59:02 PM 36.9360 -122.0150 347° North 305 351 13,700 -1,906 Descending FlightAware ADS-B
Mon 10:59:47 PM 37.0000 -122.0310 349° North 317 365 12,300 -1,200 Descending FlightAware ADS-B
Mon 11:00:27 PM 37.0540 -122.0450 348° North 282 325 12,000 -525 Descending FlightAware ADS-B
Mon 11:01:07 PM 37.1010 -122.0580 348° North 251 289 11,600 -640 Descending FlightAware ADS-B
Mon 11:01:42 PM 37.1400 -122.0690 347° North 226 260 11,200 -900 Descending FlightAware ADS-B
Mon 11:02:07 PM 37.1570 -122.0890 317° Northwest 212 244 10,700 -1,292 Descending FlightAware ADS-B
Mon 11:02:47 PM 37.1710 -122.1310 293° West 216 249 9,800 -1,371 Descending FlightAware ADS-B
Mon 11:03:17 PM 37.1840 -122.1700 293° West 217 250 9,100 -1,309 Descending FlightAware ADS-B
Mon 11:03:42 PM 37.1940 -122.2000 293° West 217 250 8,600 -1,200 Descending FlightAware ADS-B
Mon 11:04:12 PM 37.2150 -122.2250 317° Northwest 210 242 8,000 -1,300 Descending FlightAware ADS-B
Mon 11:04:42 PM 37.2380 -122.2460 324° Northwest 210 242 7,300 -1,418 Descending FlightAware ADS-B
Mon 11:05:07 PM 37.2590 -122.2630 327° Northwest 213 245 6,700 -1,200 Descending FlightAware ADS-B
Mon 11:05:37 PM 37.2830 -122.2830 326° Northwest 210 242 6,200 -764 Descending FlightAware ADS-B
Mon 11:06:02 PM 37.3030 -122.2990 328° Northwest 205 236 6,000 -218 Descending FlightAware ADS-B
Mon 11:06:32 PM 37.3270 -122.3190 326° Northwest 212 244 6,000  Level FlightAware ADS-B
Mon 11:06:52 PM 37.3440 -122.3270 339° North 218 251 6,000  Level FlightAware ADS-B
Mon 11:07:17 PM 37.3680 -122.3140 23° Northeast 238 274 6,000  Level FlightAware ADS-B
Mon 11:07:27 PM 37.3730 -122.3040 58° Northeast 246 283 6,000  Level FlightAware ADS-B
Mon 11:07:42 PM 37.3780 -122.2800 75° East 253 291 6,000  Level FlightAware ADS-B
Mon 11:08:12 PM 37.3830 -122.2380 81° East 246 283 6,000  Level FlightAware ADS-B
Mon 11:08:37 PM 37.3880 -122.2040 80° East 244 281 6,000  Level FlightAware ADS-B
Mon 11:09:07 PM 37.3940 -122.1620 80° East 246 283 6,000  Level FlightAware ADS-B
Mon 11:09:22 PM 37.3980 -122.1390 78° East 246 283 6,000  Level FlightAware ADS-B
Mon 11:09:47 PM 37.4080 -122.1070 69° East 233 268 6,000  Level FlightAware ADS-B
Mon 11:10:02 PM 37.4150 -122.0910 61° Northeast 217 250 6,000  Level FlightAware ADS-B
Mon 11:10:42 PM 37.4350 -122.0510 58° Northeast 196 226 6,000 -327 Level FlightAware ADS-B
Mon 11:10:57 PM 37.4460 -122.0440 27° Northeast 180 207 5,700 -1,200 Descending FlightAware ADS-B
Mon 11:11:27 PM 37.4680 -122.0530 342° North 166 191 5,100 -1,200 Descending FlightAware ADS-B
Mon 11:11:52 PM 37.4850 -122.0670 327° Northwest 172 198 4,600 -1,200 Descending FlightAware ADS-B
Mon 11:12:22 PM 37.4990 -122.0920 305° West 166 191 4,000 -655 Descending FlightAware ADS-B
Mon 11:12:47 PM 37.5080 -122.1130 298° West 165 190 4,000 -109 Level FlightAware ADS-B
Mon 11:13:17 PM 37.5190 -122.1390 298° West 163 188 3,900 -500 Descending FlightAware ADS-B
Mon 11:13:47 PM 37.5300 -122.1650 298° West 170 196 3,500 -873 Descending FlightAware ADS-B
Mon 11:14:12 PM 37.5390 -122.1850 300° West 165 190 3,100 -982 Descending FlightAware ADS-B
Mon 11:14:42 PM 37.5500 -122.2130 296° West 160 184 2,600 -514 Descending FlightAware ADS-B
Mon 11:15:22 PM 37.5620 -122.2420 298° West 160 184 2,500 -800 Descending FlightAware ADS-B
Mon 11:15:42 PM 37.5690 -122.2580 299° West 145 167 1,800 -1,375 Descending FlightAware ADS-B
Mon 11:16:10 PM 37.5833 -122.2833 299° West 129 148 1,400 -742 Descending Northern Cal TRACON
Mon 11:17:11 PM 37.6000 -122.3167 302° West 122 140 700 -689 Descending Northern Cal TRACON

Login

Don't have an account? Register now (free) for customized features, flight alerts, and more!